sensor_id;sensor_type;location;lat;lon;timestamp;P1;durP1;ratioP1;P2;durP2;ratioP2
7645;SDS011;3864;48.180;14.178;2023-08-06T00:00:17;19.52;;;11.57;;
7645;SDS011;3864;48.180;14.178;2023-08-06T00:02:49;20.77;;;11.43;;
7645;SDS011;3864;48.180;14.178;2023-08-06T00:05:16;20.13;;;12.20;;
7645;SDS011;3864;48.180;14.178;2023-08-06T00:07:46;18.65;;;11.20;;
7645;SDS011;3864;48.180;14.178;2023-08-06T00:10:13;21.20;;;11.25;;
7645;SDS011;3864;48.180;14.178;2023-08-06T00:12:41;18.55;;;10.93;;
7645;SDS011;3864;48.180;14.178;2023-08-06T00:15:08;22.48;;;11.85;;
7645;SDS011;3864;48.180;14.178;2023-08-06T00:17:36;18.02;;;10.80;;
7645;SDS011;3864;48.180;14.178;2023-08-06T00:20:06;15.40;;;10.20;;
7645;SDS011;3864;48.180;14.178;2023-08-06T00:22:34;18.13;;;11.45;;
7645;SDS011;3864;48.180;14.178;2023-08-06T00:25:04;17.02;;;11.57;;
7645;SDS011;3864;48.180;14.178;2023-08-06T00:27:32;15.75;;;10.05;;
7645;SDS011;3864;48.180;14.178;2023-08-06T00:29:59;15.48;;;10.48;;
7645;SDS011;3864;48.180;14.178;2023-08-06T00:32:29;14.57;;;9.85;;
7645;SDS011;3864;48.180;14.178;2023-08-06T00:34:56;13.80;;;9.05;;
7645;SDS011;3864;48.180;14.178;2023-08-06T00:37:25;15.18;;;9.90;;
7645;SDS011;3864;48.180;14.178;2023-08-06T00:39:52;13.82;;;8.75;;
7645;SDS011;3864;48.180;14.178;2023-08-06T00:42:20;15.55;;;10.23;;
7645;SDS011;3864;48.180;14.178;2023-08-06T00:44:47;14.32;;;9.85;;
7645;SDS011;3864;48.180;14.178;2023-08-06T00:47:16;14.20;;;9.57;;
7645;SDS011;3864;48.180;14.178;2023-08-06T00:49:43;13.35;;;9.27;;
7645;SDS011;3864;48.180;14.178;2023-08-06T00:52:10;12.95;;;8.23;;
7645;SDS011;3864;48.180;14.178;2023-08-06T00:54:41;14.02;;;9.13;;
7645;SDS011;3864;48.180;14.178;2023-08-06T00:57:08;14.43;;;9.50;;
7645;SDS011;3864;48.180;14.178;2023-08-06T00:59:36;12.68;;;9.18;;
7645;SDS011;3864;48.180;14.178;2023-08-06T01:02:03;13.52;;;9.40;;
7645;SDS011;3864;48.180;14.178;2023-08-06T01:04:31;13.80;;;8.75;;
7645;SDS011;3864;48.180;14.178;2023-08-06T01:07:01;14.95;;;9.50;;
7645;SDS011;3864;48.180;14.178;2023-08-06T01:09:44;13.15;;;9.00;;
7645;SDS011;3864;48.180;14.178;2023-08-06T01:12:18;13.35;;;9.27;;
7645;SDS011;3864;48.180;14.178;2023-08-06T01:14:53;13.85;;;8.55;;
7645;SDS011;3864;48.180;14.178;2023-08-06T01:17:30;13.63;;;9.00;;
7645;SDS011;3864;48.180;14.178;2023-08-06T01:19:58;13.75;;;8.88;;
7645;SDS011;3864;48.180;14.178;2023-08-06T01:22:30;15.15;;;8.70;;
7645;SDS011;3864;48.180;14.178;2023-08-06T01:24:57;12.63;;;8.82;;
7645;SDS011;3864;48.180;14.178;2023-08-06T01:27:26;13.30;;;8.48;;
7645;SDS011;3864;48.180;14.178;2023-08-06T01:30:01;12.75;;;8.90;;
7645;SDS011;3864;48.180;14.178;2023-08-06T01:32:34;13.40;;;8.73;;
7645;SDS011;3864;48.180;14.178;2023-08-06T01:35:02;13.43;;;8.45;;
7645;SDS011;3864;48.180;14.178;2023-08-06T01:37:32;11.98;;;7.82;;
7645;SDS011;3864;48.180;14.178;2023-08-06T01:39:59;13.63;;;8.73;;
7645;SDS011;3864;48.180;14.178;2023-08-06T01:42:26;12.98;;;9.07;;
7645;SDS011;3864;48.180;14.178;2023-08-06T01:44:53;11.55;;;7.82;;
7645;SDS011;3864;48.180;14.178;2023-08-06T01:47:21;12.90;;;8.27;;
7645;SDS011;3864;48.180;14.178;2023-08-06T01:49:48;14.73;;;9.40;;
7645;SDS011;3864;48.180;14.178;2023-08-06T01:52:15;11.43;;;8.00;;
7645;SDS011;3864;48.180;14.178;2023-08-06T01:54:47;12.23;;;8.40;;
7645;SDS011;3864;48.180;14.178;2023-08-06T01:57:14;12.30;;;8.50;;
7645;SDS011;3864;48.180;14.178;2023-08-06T01:59:41;11.52;;;8.05;;
7645;SDS011;3864;48.180;14.178;2023-08-06T02:02:08;11.52;;;8.60;;
7645;SDS011;3864;48.180;14.178;2023-08-06T02:04:36;11.57;;;8.15;;
7645;SDS011;3864;48.180;14.178;2023-08-06T02:07:08;12.63;;;8.20;;
7645;SDS011;3864;48.180;14.178;2023-08-06T02:09:35;11.90;;;8.30;;
7645;SDS011;3864;48.180;14.178;2023-08-06T02:12:04;11.70;;;8.38;;
7645;SDS011;3864;48.180;14.178;2023-08-06T02:14:32;11.45;;;8.25;;
7645;SDS011;3864;48.180;14.178;2023-08-06T02:17:00;11.63;;;8.13;;
7645;SDS011;3864;48.180;14.178;2023-08-06T02:19:27;11.65;;;8.13;;
7645;SDS011;3864;48.180;14.178;2023-08-06T02:21:54;12.68;;;8.05;;
7645;SDS011;3864;48.180;14.178;2023-08-06T02:24:21;12.07;;;8.73;;
7645;SDS011;3864;48.180;14.178;2023-08-06T02:26:48;15.30;;;9.38;;
7645;SDS011;3864;48.180;14.178;2023-08-06T02:29:17;12.88;;;8.23;;
7645;SDS011;3864;48.180;14.178;2023-08-06T02:31:44;14.30;;;9.30;;
7645;SDS011;3864;48.180;14.178;2023-08-06T02:34:12;13.27;;;9.10;;
7645;SDS011;3864;48.180;14.178;2023-08-06T02:36:39;12.98;;;8.10;;
7645;SDS011;3864;48.180;14.178;2023-08-06T02:39:06;14.73;;;9.15;;
7645;SDS011;3864;48.180;14.178;2023-08-06T02:41:33;13.45;;;8.52;;
7645;SDS011;3864;48.180;14.178;2023-08-06T02:44:00;15.43;;;8.88;;
7645;SDS011;3864;48.180;14.178;2023-08-06T02:46:29;13.15;;;8.68;;
7645;SDS011;3864;48.180;14.178;2023-08-06T02:48:56;15.45;;;9.30;;
7645;SDS011;3864;48.180;14.178;2023-08-06T02:51:27;15.15;;;9.23;;
7645;SDS011;3864;48.180;14.178;2023-08-06T02:53:54;16.70;;;9.35;;
7645;SDS011;3864;48.180;14.178;2023-08-06T02:56:21;18.67;;;11.05;;
7645;SDS011;3864;48.180;14.178;2023-08-06T02:58:48;16.02;;;9.55;;
7645;SDS011;3864;48.180;14.178;2023-08-06T03:01:15;17.00;;;10.70;;
7645;SDS011;3864;48.180;14.178;2023-08-06T03:03:44;15.43;;;10.20;;
7645;SDS011;3864;48.180;14.178;2023-08-06T03:06:11;16.48;;;10.98;;
7645;SDS011;3864;48.180;14.178;2023-08-06T03:08:38;16.80;;;10.25;;
7645;SDS011;3864;48.180;14.178;2023-08-06T03:11:05;18.55;;;11.25;;
7645;SDS011;3864;48.180;14.178;2023-08-06T03:13:32;17.98;;;11.40;;
7645;SDS011;3864;48.180;14.178;2023-08-06T03:15:59;19.25;;;12.90;;
7645;SDS011;3864;48.180;14.178;2023-08-06T03:18:27;22.88;;;13.52;;
7645;SDS011;3864;48.180;14.178;2023-08-06T03:20:56;20.45;;;12.00;;
7645;SDS011;3864;48.180;14.178;2023-08-06T03:23:26;21.45;;;12.02;;
7645;SDS011;3864;48.180;14.178;2023-08-06T03:25:53;21.77;;;13.05;;
7645;SDS011;3864;48.180;14.178;2023-08-06T03:28:20;21.90;;;13.38;;
7645;SDS011;3864;48.180;14.178;2023-08-06T03:30:48;21.02;;;12.18;;
7645;SDS011;3864;48.180;14.178;2023-08-06T03:33:24;18.33;;;11.15;;
7645;SDS011;3864;48.180;14.178;2023-08-06T03:35:51;17.55;;;10.90;;
7645;SDS011;3864;48.180;14.178;2023-08-06T03:38:20;19.63;;;10.77;;
7645;SDS011;3864;48.180;14.178;2023-08-06T03:40:47;17.42;;;11.25;;
7645;SDS011;3864;48.180;14.178;2023-08-06T03:43:15;16.52;;;11.38;;
7645;SDS011;3864;48.180;14.178;2023-08-06T03:45:42;16.20;;;10.32;;
7645;SDS011;3864;48.180;14.178;2023-08-06T03:48:09;14.30;;;9.18;;
7645;SDS011;3864;48.180;14.178;2023-08-06T03:50:37;14.43;;;8.90;;
7645;SDS011;3864;48.180;14.178;2023-08-06T03:53:04;11.82;;;8.55;;
7645;SDS011;3864;48.180;14.178;2023-08-06T03:55:33;14.52;;;8.93;;
7645;SDS011;3864;48.180;14.178;2023-08-06T03:58:00;11.93;;;7.63;;
7645;SDS011;3864;48.180;14.178;2023-08-06T04:00:29;10.00;;;7.22;;
7645;SDS011;3864;48.180;14.178;2023-08-06T04:02:56;8.88;;;6.78;;
7645;SDS011;3864;48.180;14.178;2023-08-06T04:05:23;8.23;;;5.50;;
7645;SDS011;3864;48.180;14.178;2023-08-06T04:07:50;7.18;;;4.88;;
7645;SDS011;3864;48.180;14.178;2023-08-06T04:10:20;7.82;;;5.35;;
7645;SDS011;3864;48.180;14.178;2023-08-06T04:12:49;6.90;;;4.85;;
7645;SDS011;3864;48.180;14.178;2023-08-06T04:15:16;5.70;;;4.53;;
7645;SDS011;3864;48.180;14.178;2023-08-06T04:17:43;6.93;;;4.60;;
7645;SDS011;3864;48.180;14.178;2023-08-06T04:20:10;6.53;;;4.05;;
7645;SDS011;3864;48.180;14.178;2023-08-06T04:22:37;5.22;;;4.03;;
7645;SDS011;3864;48.180;14.178;2023-08-06T04:25:05;6.88;;;4.18;;
7645;SDS011;3864;48.180;14.178;2023-08-06T04:27:32;5.88;;;4.18;;
7645;SDS011;3864;48.180;14.178;2023-08-06T04:30:01;5.50;;;4.15;;
7645;SDS011;3864;48.180;14.178;2023-08-06T04:32:28;6.25;;;4.45;;
7645;SDS011;3864;48.180;14.178;2023-08-06T04:34:57;7.30;;;4.47;;
7645;SDS011;3864;48.180;14.178;2023-08-06T04:37:24;7.38;;;4.60;;
7645;SDS011;3864;48.180;14.178;2023-08-06T04:39:51;6.72;;;4.70;;
7645;SDS011;3864;48.180;14.178;2023-08-06T04:42:18;15.25;;;4.63;;
7645;SDS011;3864;48.180;14.178;2023-08-06T04:44:45;6.65;;;4.88;;
7645;SDS011;3864;48.180;14.178;2023-08-06T04:47:13;6.18;;;4.35;;
7645;SDS011;3864;48.180;14.178;2023-08-06T04:49:41;6.53;;;4.75;;
7645;SDS011;3864;48.180;14.178;2023-08-06T04:52:08;6.30;;;4.13;;
7645;SDS011;3864;48.180;14.178;2023-08-06T04:54:35;7.70;;;4.28;;
7645;SDS011;3864;48.180;14.178;2023-08-06T04:57:04;6.68;;;4.90;;
7645;SDS011;3864;48.180;14.178;2023-08-06T04:59:32;7.00;;;4.88;;
7645;SDS011;3864;48.180;14.178;2023-08-06T05:01:59;7.30;;;5.22;;
7645;SDS011;3864;48.180;14.178;2023-08-06T05:04:27;8.73;;;5.60;;
7645;SDS011;3864;48.180;14.178;2023-08-06T05:06:54;6.43;;;5.00;;
7645;SDS011;3864;48.180;14.178;2023-08-06T05:09:21;8.38;;;5.30;;
7645;SDS011;3864;48.180;14.178;2023-08-06T05:11:48;6.32;;;4.82;;
7645;SDS011;3864;48.180;14.178;2023-08-06T05:14:15;7.00;;;5.28;;
7645;SDS011;3864;48.180;14.178;2023-08-06T05:16:42;8.93;;;4.82;;
7645;SDS011;3864;48.180;14.178;2023-08-06T05:19:09;6.82;;;4.82;;
7645;SDS011;3864;48.180;14.178;2023-08-06T05:21:38;7.40;;;4.90;;
7645;SDS011;3864;48.180;14.178;2023-08-06T05:24:05;7.38;;;5.00;;
7645;SDS011;3864;48.180;14.178;2023-08-06T05:26:32;6.63;;;5.13;;
7645;SDS011;3864;48.180;14.178;2023-08-06T05:29:00;6.70;;;5.07;;
7645;SDS011;3864;48.180;14.178;2023-08-06T05:31:27;7.43;;;5.35;;
7645;SDS011;3864;48.180;14.178;2023-08-06T05:33:55;7.22;;;5.55;;
7645;SDS011;3864;48.180;14.178;2023-08-06T05:36:22;7.88;;;5.43;;
7645;SDS011;3864;48.180;14.178;2023-08-06T05:38:50;7.72;;;5.45;;
7645;SDS011;3864;48.180;14.178;2023-08-06T05:41:17;9.65;;;5.35;;
7645;SDS011;3864;48.180;14.178;2023-08-06T05:43:44;7.90;;;5.55;;
7645;SDS011;3864;48.180;14.178;2023-08-06T05:46:11;7.15;;;5.35;;
7645;SDS011;3864;48.180;14.178;2023-08-06T05:48:38;8.43;;;5.53;;
7645;SDS011;3864;48.180;14.178;2023-08-06T05:51:05;6.90;;;4.82;;
7645;SDS011;3864;48.180;14.178;2023-08-06T05:53:33;7.47;;;5.10;;
7645;SDS011;3864;48.180;14.178;2023-08-06T05:56:02;9.25;;;6.00;;
7645;SDS011;3864;48.180;14.178;2023-08-06T05:58:29;7.07;;;5.45;;
7645;SDS011;3864;48.180;14.178;2023-08-06T06:00:56;7.18;;;5.30;;
7645;SDS011;3864;48.180;14.178;2023-08-06T06:03:23;7.78;;;4.95;;
7645;SDS011;3864;48.180;14.178;2023-08-06T06:05:50;7.32;;;5.20;;
7645;SDS011;3864;48.180;14.178;2023-08-06T06:08:17;6.85;;;4.85;;
7645;SDS011;3864;48.180;14.178;2023-08-06T06:10:44;5.85;;;4.63;;
7645;SDS011;3864;48.180;14.178;2023-08-06T06:13:13;8.50;;;5.40;;
7645;SDS011;3864;48.180;14.178;2023-08-06T06:15:40;7.03;;;5.30;;
7645;SDS011;3864;48.180;14.178;2023-08-06T06:18:07;6.57;;;5.45;;
7645;SDS011;3864;48.180;14.178;2023-08-06T06:20:34;7.18;;;5.57;;
7645;SDS011;3864;48.180;14.178;2023-08-06T06:23:01;6.55;;;4.95;;
7645;SDS011;3864;48.180;14.178;2023-08-06T06:25:28;5.90;;;5.13;;
7645;SDS011;3864;48.180;14.178;2023-08-06T06:27:55;7.15;;;5.30;;
7645;SDS011;3864;48.180;14.178;2023-08-06T06:30:29;6.03;;;5.20;;
7645;SDS011;3864;48.180;14.178;2023-08-06T06:32:56;10.02;;;5.40;;
7645;SDS011;3864;48.180;14.178;2023-08-06T06:35:28;6.70;;;5.55;;
7645;SDS011;3864;48.180;14.178;2023-08-06T06:37:55;6.20;;;5.20;;
7645;SDS011;3864;48.180;14.178;2023-08-06T06:40:22;7.22;;;5.35;;
7645;SDS011;3864;48.180;14.178;2023-08-06T06:42:49;6.05;;;4.95;;
7645;SDS011;3864;48.180;14.178;2023-08-06T06:45:19;7.28;;;4.57;;
7645;SDS011;3864;48.180;14.178;2023-08-06T06:47:48;5.95;;;4.95;;
7645;SDS011;3864;48.180;14.178;2023-08-06T06:50:18;5.63;;;4.90;;
7645;SDS011;3864;48.180;14.178;2023-08-06T06:52:45;6.90;;;5.28;;
7645;SDS011;3864;48.180;14.178;2023-08-06T06:55:12;5.68;;;4.57;;
7645;SDS011;3864;48.180;14.178;2023-08-06T06:57:43;7.15;;;5.13;;
7645;SDS011;3864;48.180;14.178;2023-08-06T07:00:10;6.00;;;4.40;;
7645;SDS011;3864;48.180;14.178;2023-08-06T07:02:38;7.15;;;4.25;;
7645;SDS011;3864;48.180;14.178;2023-08-06T07:05:07;5.32;;;4.20;;
7645;SDS011;3864;48.180;14.178;2023-08-06T07:07:35;5.95;;;4.85;;
7645;SDS011;3864;48.180;14.178;2023-08-06T07:10:02;5.20;;;4.28;;
7645;SDS011;3864;48.180;14.178;2023-08-06T07:12:30;5.55;;;4.25;;
7645;SDS011;3864;48.180;14.178;2023-08-06T07:14:58;5.82;;;4.32;;
7645;SDS011;3864;48.180;14.178;2023-08-06T07:17:25;4.80;;;3.70;;
7645;SDS011;3864;48.180;14.178;2023-08-06T07:19:52;5.93;;;4.13;;
7645;SDS011;3864;48.180;14.178;2023-08-06T07:22:21;5.45;;;4.03;;
7645;SDS011;3864;48.180;14.178;2023-08-06T07:24:48;4.60;;;3.92;;
7645;SDS011;3864;48.180;14.178;2023-08-06T07:27:15;6.25;;;4.35;;
7645;SDS011;3864;48.180;14.178;2023-08-06T07:29:42;5.07;;;3.92;;
7645;SDS011;3864;48.180;14.178;2023-08-06T07:32:09;4.13;;;3.60;;
7645;SDS011;3864;48.180;14.178;2023-08-06T07:34:38;4.40;;;3.90;;
7645;SDS011;3864;48.180;14.178;2023-08-06T07:37:05;4.22;;;3.60;;
7645;SDS011;3864;48.180;14.178;2023-08-06T07:39:34;4.88;;;3.40;;
7645;SDS011;3864;48.180;14.178;2023-08-06T07:42:03;3.97;;;3.28;;
7645;SDS011;3864;48.180;14.178;2023-08-06T07:44:32;4.40;;;3.35;;
7645;SDS011;3864;48.180;14.178;2023-08-06T07:46:59;4.63;;;3.55;;
7645;SDS011;3864;48.180;14.178;2023-08-06T07:49:26;4.95;;;3.42;;
7645;SDS011;3864;48.180;14.178;2023-08-06T07:51:53;4.90;;;3.30;;
7645;SDS011;3864;48.180;14.178;2023-08-06T07:54:20;4.78;;;3.90;;
7645;SDS011;3864;48.180;14.178;2023-08-06T07:56:55;4.63;;;3.90;;
7645;SDS011;3864;48.180;14.178;2023-08-06T07:59:22;5.40;;;3.88;;
7645;SDS011;3864;48.180;14.178;2023-08-06T08:01:52;5.97;;;3.58;;
7645;SDS011;3864;48.180;14.178;2023-08-06T08:04:21;4.70;;;3.63;;
7645;SDS011;3864;48.180;14.178;2023-08-06T08:06:48;4.60;;;3.10;;
7645;SDS011;3864;48.180;14.178;2023-08-06T08:09:15;4.40;;;2.80;;
7645;SDS011;3864;48.180;14.178;2023-08-06T08:11:43;5.43;;;2.80;;
7645;SDS011;3864;48.180;14.178;2023-08-06T08:14:11;3.38;;;2.50;;
7645;SDS011;3864;48.180;14.178;2023-08-06T08:16:39;4.45;;;2.45;;
7645;SDS011;3864;48.180;14.178;2023-08-06T08:19:06;3.50;;;2.42;;
7645;SDS011;3864;48.180;14.178;2023-08-06T08:21:33;2.90;;;2.20;;
7645;SDS011;3864;48.180;14.178;2023-08-06T08:24:00;3.45;;;2.28;;
7645;SDS011;3864;48.180;14.178;2023-08-06T08:26:30;4.35;;;3.13;;
7645;SDS011;3864;48.180;14.178;2023-08-06T08:28:57;3.67;;;2.60;;
7645;SDS011;3864;48.180;14.178;2023-08-06T08:31:26;3.95;;;2.90;;
7645;SDS011;3864;48.180;14.178;2023-08-06T08:33:53;6.43;;;3.42;;
7645;SDS011;3864;48.180;14.178;2023-08-06T08:36:20;4.25;;;3.28;;
7645;SDS011;3864;48.180;14.178;2023-08-06T08:38:47;5.07;;;3.00;;
7645;SDS011;3864;48.180;14.178;2023-08-06T08:41:18;4.57;;;3.20;;
7645;SDS011;3864;48.180;14.178;2023-08-06T08:43:47;5.72;;;3.85;;
7645;SDS011;3864;48.180;14.178;2023-08-06T08:46:16;4.50;;;3.13;;
7645;SDS011;3864;48.180;14.178;2023-08-06T08:48:46;5.30;;;3.00;;
7645;SDS011;3864;48.180;14.178;2023-08-06T08:51:13;5.22;;;3.47;;
7645;SDS011;3864;48.180;14.178;2023-08-06T08:53:41;6.47;;;3.83;;
7645;SDS011;3864;48.180;14.178;2023-08-06T08:56:10;5.38;;;2.88;;
7645;SDS011;3864;48.180;14.178;2023-08-06T08:58:39;4.93;;;3.50;;
7645;SDS011;3864;48.180;14.178;2023-08-06T09:01:07;5.63;;;3.20;;
7645;SDS011;3864;48.180;14.178;2023-08-06T09:03:35;5.68;;;3.17;;
7645;SDS011;3864;48.180;14.178;2023-08-06T09:06:04;4.53;;;2.72;;
7645;SDS011;3864;48.180;14.178;2023-08-06T09:08:34;4.65;;;2.75;;
7645;SDS011;3864;48.180;14.178;2023-08-06T09:11:05;4.40;;;2.90;;
7645;SDS011;3864;48.180;14.178;2023-08-06T09:13:36;5.15;;;3.25;;
7645;SDS011;3864;48.180;14.178;2023-08-06T09:16:03;4.88;;;3.35;;
7645;SDS011;3864;48.180;14.178;2023-08-06T09:18:31;5.35;;;2.90;;
7645;SDS011;3864;48.180;14.178;2023-08-06T09:20:58;5.05;;;3.08;;
7645;SDS011;3864;48.180;14.178;2023-08-06T09:23:30;4.07;;;2.90;;
7645;SDS011;3864;48.180;14.178;2023-08-06T09:25:58;4.20;;;3.00;;
7645;SDS011;3864;48.180;14.178;2023-08-06T09:28:36;4.10;;;2.70;;
7645;SDS011;3864;48.180;14.178;2023-08-06T09:31:14;4.18;;;2.50;;
7645;SDS011;3864;48.180;14.178;2023-08-06T09:33:44;4.60;;;2.72;;
7645;SDS011;3864;48.180;14.178;2023-08-06T09:36:14;5.65;;;2.72;;
7645;SDS011;3864;48.180;14.178;2023-08-06T09:39:21;4.13;;;2.63;;
7645;SDS011;3864;48.180;14.178;2023-08-06T09:42:03;3.60;;;2.47;;
7645;SDS011;3864;48.180;14.178;2023-08-06T09:44:51;3.90;;;3.00;;
7645;SDS011;3864;48.180;14.178;2023-08-06T09:47:28;5.00;;;3.00;;
7645;SDS011;3864;48.180;14.178;2023-08-06T09:50:00;3.30;;;2.25;;
7645;SDS011;3864;48.180;14.178;2023-08-06T09:52:38;3.53;;;2.28;;
7645;SDS011;3864;48.180;14.178;2023-08-06T09:55:16;3.80;;;2.33;;
7645;SDS011;3864;48.180;14.178;2023-08-06T09:57:50;2.80;;;1.80;;
7645;SDS011;3864;48.180;14.178;2023-08-06T10:00:17;3.10;;;2.00;;
7645;SDS011;3864;48.180;14.178;2023-08-06T10:02:45;3.40;;;1.83;;
7645;SDS011;3864;48.180;14.178;2023-08-06T10:05:20;3.00;;;2.10;;
7645;SDS011;3864;48.180;14.178;2023-08-06T10:07:51;3.30;;;1.95;;
7645;SDS011;3864;48.180;14.178;2023-08-06T10:10:24;3.65;;;2.00;;
7645;SDS011;3864;48.180;14.178;2023-08-06T10:12:56;3.97;;;2.63;;
7645;SDS011;3864;48.180;14.178;2023-08-06T10:15:26;3.78;;;1.95;;
7645;SDS011;3864;48.180;14.178;2023-08-06T10:18:04;3.42;;;1.80;;
7645;SDS011;3864;48.180;14.178;2023-08-06T10:20:36;4.40;;;2.28;;
7645;SDS011;3864;48.180;14.178;2023-08-06T10:23:03;3.33;;;1.92;;
7645;SDS011;3864;48.180;14.178;2023-08-06T10:25:34;3.08;;;2.00;;
7645;SDS011;3864;48.180;14.178;2023-08-06T10:28:11;3.78;;;2.03;;
7645;SDS011;3864;48.180;14.178;2023-08-06T10:30:44;2.33;;;1.60;;
7645;SDS011;3864;48.180;14.178;2023-08-06T10:33:12;3.97;;;1.58;;
7645;SDS011;3864;48.180;14.178;2023-08-06T10:35:43;3.13;;;1.77;;
7645;SDS011;3864;48.180;14.178;2023-08-06T10:38:14;3.08;;;1.70;;
7645;SDS011;3864;48.180;14.178;2023-08-06T10:40:48;4.18;;;2.00;;
7645;SDS011;3864;48.180;14.178;2023-08-06T10:43:26;3.55;;;1.90;;
7645;SDS011;3864;48.180;14.178;2023-08-06T10:45:54;2.38;;;1.60;;
7645;SDS011;3864;48.180;14.178;2023-08-06T10:48:28;3.30;;;1.70;;
7645;SDS011;3864;48.180;14.178;2023-08-06T10:50:59;2.92;;;1.80;;
7645;SDS011;3864;48.180;14.178;2023-08-06T10:53:27;2.60;;;1.60;;
7645;SDS011;3864;48.180;14.178;2023-08-06T10:55:58;3.33;;;2.03;;
7645;SDS011;3864;48.180;14.178;2023-08-06T10:58:30;2.70;;;1.40;;
7645;SDS011;3864;48.180;14.178;2023-08-06T11:00:58;2.05;;;1.30;;
7645;SDS011;3864;48.180;14.178;2023-08-06T11:03:33;5.60;;;1.55;;
7645;SDS011;3864;48.180;14.178;2023-08-06T11:06:01;2.33;;;1.20;;
7645;SDS011;3864;48.180;14.178;2023-08-06T11:08:40;2.50;;;1.33;;
7645;SDS011;3864;48.180;14.178;2023-08-06T11:13:52;2.25;;;1.10;;
7645;SDS011;3864;48.180;14.178;2023-08-06T11:16:29;3.65;;;1.40;;
7645;SDS011;3864;48.180;14.178;2023-08-06T11:19:00;2.83;;;1.10;;
7645;SDS011;3864;48.180;14.178;2023-08-06T11:21:30;2.35;;;1.30;;
7645;SDS011;3864;48.180;14.178;2023-08-06T11:23:57;2.03;;;1.33;;
7645;SDS011;3864;48.180;14.178;2023-08-06T11:26:26;3.03;;;1.65;;
7645;SDS011;3864;48.180;14.178;2023-08-06T11:28:56;1.35;;;1.20;;
7645;SDS011;3864;48.180;14.178;2023-08-06T11:31:29;2.35;;;1.13;;
7645;SDS011;3864;48.180;14.178;2023-08-06T11:34:10;2.60;;;1.27;;
7645;SDS011;3864;48.180;14.178;2023-08-06T11:36:39;2.22;;;1.20;;
7645;SDS011;3864;48.180;14.178;2023-08-06T11:39:08;1.80;;;1.20;;
7645;SDS011;3864;48.180;14.178;2023-08-06T11:41:37;1.48;;;1.20;;
7645;SDS011;3864;48.180;14.178;2023-08-06T11:44:05;3.42;;;1.27;;
7645;SDS011;3864;48.180;14.178;2023-08-06T11:49:17;1.80;;;1.20;;
7645;SDS011;3864;48.180;14.178;2023-08-06T11:51:47;2.30;;;1.23;;
7645;SDS011;3864;48.180;14.178;2023-08-06T11:54:14;2.30;;;1.27;;
7645;SDS011;3864;48.180;14.178;2023-08-06T11:56:43;3.15;;;1.40;;
7645;SDS011;3864;48.180;14.178;2023-08-06T11:59:12;3.50;;;1.40;;
7645;SDS011;3864;48.180;14.178;2023-08-06T12:01:39;1.55;;;1.20;;
7645;SDS011;3864;48.180;14.178;2023-08-06T12:04:10;2.20;;;1.50;;
7645;SDS011;3864;48.180;14.178;2023-08-06T12:06:41;2.40;;;1.50;;
7645;SDS011;3864;48.180;14.178;2023-08-06T12:09:10;2.17;;;1.45;;
7645;SDS011;3864;48.180;14.178;2023-08-06T12:11:39;3.30;;;1.65;;
7645;SDS011;3864;48.180;14.178;2023-08-06T12:14:08;5.03;;;1.63;;
7645;SDS011;3864;48.180;14.178;2023-08-06T12:16:38;2.30;;;1.45;;
7645;SDS011;3864;48.180;14.178;2023-08-06T12:19:13;2.72;;;1.52;;
7645;SDS011;3864;48.180;14.178;2023-08-06T12:21:40;1.95;;;1.15;;
7645;SDS011;3864;48.180;14.178;2023-08-06T12:24:07;1.58;;;0.82;;
7645;SDS011;3864;48.180;14.178;2023-08-06T12:26:35;1.77;;;0.70;;
7645;SDS011;3864;48.180;14.178;2023-08-06T12:29:02;1.15;;;1.02;;
7645;SDS011;3864;48.180;14.178;2023-08-06T12:31:39;1.38;;;0.77;;
7645;SDS011;3864;48.180;14.178;2023-08-06T12:34:08;1.73;;;0.90;;
7645;SDS011;3864;48.180;14.178;2023-08-06T12:36:35;1.00;;;0.98;;
7645;SDS011;3864;48.180;14.178;2023-08-06T12:39:02;1.70;;;1.15;;
7645;SDS011;3864;48.180;14.178;2023-08-06T12:41:31;1.85;;;0.88;;
7645;SDS011;3864;48.180;14.178;2023-08-06T12:43:58;1.00;;;0.80;;
7645;SDS011;3864;48.180;14.178;2023-08-06T12:46:25;0.63;;;0.60;;
7645;SDS011;3864;48.180;14.178;2023-08-06T12:48:54;0.90;;;0.90;;
7645;SDS011;3864;48.180;14.178;2023-08-06T12:51:22;2.00;;;0.93;;
7645;SDS011;3864;48.180;14.178;2023-08-06T12:53:49;2.05;;;0.88;;
7645;SDS011;3864;48.180;14.178;2023-08-06T12:56:17;1.05;;;0.95;;
7645;SDS011;3864;48.180;14.178;2023-08-06T12:58:44;1.15;;;0.90;;
7645;SDS011;3864;48.180;14.178;2023-08-06T13:01:11;0.43;;;0.40;;
7645;SDS011;3864;48.180;14.178;2023-08-06T13:03:38;1.13;;;0.68;;
7645;SDS011;3864;48.180;14.178;2023-08-06T13:06:07;0.30;;;0.25;;
7645;SDS011;3864;48.180;14.178;2023-08-06T13:08:34;1.55;;;0.73;;
7645;SDS011;3864;48.180;14.178;2023-08-06T13:11:01;0.73;;;0.52;;
7645;SDS011;3864;48.180;14.178;2023-08-06T13:13:28;0.47;;;0.47;;
7645;SDS011;3864;48.180;14.178;2023-08-06T13:15:55;1.90;;;0.50;;
7645;SDS011;3864;48.180;14.178;2023-08-06T13:18:22;0.75;;;0.63;;
7645;SDS011;3864;48.180;14.178;2023-08-06T13:20:49;2.00;;;0.85;;
7645;SDS011;3864;48.180;14.178;2023-08-06T13:23:21;1.08;;;0.55;;
7645;SDS011;3864;48.180;14.178;2023-08-06T13:25:48;1.05;;;0.90;;
7645;SDS011;3864;48.180;14.178;2023-08-06T13:28:15;1.05;;;0.70;;
7645;SDS011;3864;48.180;14.178;2023-08-06T13:30:42;0.85;;;0.68;;
7645;SDS011;3864;48.180;14.178;2023-08-06T13:33:10;0.47;;;0.47;;
7645;SDS011;3864;48.180;14.178;2023-08-06T13:35:38;1.38;;;0.68;;
7645;SDS011;3864;48.180;14.178;2023-08-06T13:38:06;0.85;;;0.75;;
7645;SDS011;3864;48.180;14.178;2023-08-06T13:40:48;0.93;;;0.60;;
7645;SDS011;3864;48.180;14.178;2023-08-06T13:43:15;1.52;;;0.73;;
7645;SDS011;3864;48.180;14.178;2023-08-06T13:45:47;2.20;;;0.60;;
7645;SDS011;3864;48.180;14.178;2023-08-06T13:48:16;1.27;;;0.77;;
7645;SDS011;3864;48.180;14.178;2023-08-06T13:50:43;1.10;;;0.77;;
7645;SDS011;3864;48.180;14.178;2023-08-06T13:53:10;3.35;;;1.08;;
7645;SDS011;3864;48.180;14.178;2023-08-06T13:55:39;0.88;;;0.63;;
7645;SDS011;3864;48.180;14.178;2023-08-06T13:58:06;2.72;;;0.63;;
7645;SDS011;3864;48.180;14.178;2023-08-06T14:00:33;0.95;;;0.75;;
7645;SDS011;3864;48.180;14.178;2023-08-06T14:03:03;1.77;;;1.10;;
7645;SDS011;3864;48.180;14.178;2023-08-06T14:05:30;0.98;;;0.85;;
7645;SDS011;3864;48.180;14.178;2023-08-06T14:08:05;1.40;;;0.50;;
7645;SDS011;3864;48.180;14.178;2023-08-06T14:10:35;0.77;;;0.70;;
7645;SDS011;3864;48.180;14.178;2023-08-06T14:13:04;1.35;;;0.88;;
7645;SDS011;3864;48.180;14.178;2023-08-06T14:15:31;0.93;;;0.85;;
7645;SDS011;3864;48.180;14.178;2023-08-06T14:17:59;0.70;;;0.60;;
7645;SDS011;3864;48.180;14.178;2023-08-06T14:20:26;0.63;;;0.35;;
7645;SDS011;3864;48.180;14.178;2023-08-06T14:22:56;2.05;;;0.70;;
7645;SDS011;3864;48.180;14.178;2023-08-06T14:25:23;0.88;;;0.88;;
7645;SDS011;3864;48.180;14.178;2023-08-06T14:27:51;1.27;;;1.00;;
7645;SDS011;3864;48.180;14.178;2023-08-06T14:30:23;0.55;;;0.55;;
7645;SDS011;3864;48.180;14.178;2023-08-06T14:32:51;1.33;;;0.82;;
7645;SDS011;3864;48.180;14.178;2023-08-06T14:35:18;1.00;;;0.65;;
7645;SDS011;3864;48.180;14.178;2023-08-06T14:37:45;1.70;;;0.80;;
7645;SDS011;3864;48.180;14.178;2023-08-06T14:40:12;0.63;;;0.60;;
7645;SDS011;3864;48.180;14.178;2023-08-06T14:42:40;1.73;;;1.13;;
7645;SDS011;3864;48.180;14.178;2023-08-06T14:45:07;0.60;;;0.60;;
7645;SDS011;3864;48.180;14.178;2023-08-06T14:47:36;0.73;;;0.50;;
7645;SDS011;3864;48.180;14.178;2023-08-06T14:50:03;0.88;;;0.70;;
7645;SDS011;3864;48.180;14.178;2023-08-06T14:52:31;0.88;;;0.70;;
7645;SDS011;3864;48.180;14.178;2023-08-06T14:54:59;1.13;;;0.68;;
7645;SDS011;3864;48.180;14.178;2023-08-06T14:57:41;1.08;;;0.90;;
7645;SDS011;3864;48.180;14.178;2023-08-06T15:00:08;0.68;;;0.68;;
7645;SDS011;3864;48.180;14.178;2023-08-06T15:02:38;0.73;;;0.40;;
7645;SDS011;3864;48.180;14.178;2023-08-06T15:05:05;0.95;;;0.85;;
7645;SDS011;3864;48.180;14.178;2023-08-06T15:07:33;0.63;;;0.50;;
7645;SDS011;3864;48.180;14.178;2023-08-06T15:10:01;1.10;;;0.40;;